Terminal Aerodrome Forecast
Issued by NWS Albany, NY

Home | Current Version | Previous Version | Text Only | Print | Product List | Glossary On
Versions: 1 2 3 4 5 6 7 8 9 10 11 12 13 14 15 16 17 18 19 20
705
FTUS41 KALY 192320
TAFGFL
TAF
KGFL 192320Z 2000/2024 33009KT P6SM VCSH BKN060 OVC080
     FM200500 31008KT P6SM VCSH SCT040 BKN070
     FM200900 30005KT P6SM BKN060
     FM201400 32009KT P6SM BKN040=

USA.gov is the U.S. government's official web portal to all federal, state and local government web resources and services.